createdAt,value
2022-09-01T00:00:02.896Z,98000.38
2022-09-01T00:03:07.807Z,98002.56
2022-09-01T00:06:11.999Z,97990.50
2022-09-01T00:09:20.595Z,97996.53
2022-09-01T00:12:25.737Z,97997.06
2022-09-01T00:15:28.692Z,97991.63
2022-09-01T00:18:32.192Z,97985.50
2022-09-01T00:21:39.089Z,97995.91
2022-09-01T00:24:42.082Z,97988.72
2022-09-01T00:27:44.906Z,97993.53
2022-09-01T00:30:47.820Z,97980.66
2022-09-01T00:33:51.504Z,97978.69
2022-09-01T00:36:55.795Z,97979.50
2022-09-01T00:39:59.128Z,97972.53
2022-09-01T00:43:02.513Z,97980.78
2022-09-01T00:46:05.722Z,97981.44
2022-09-01T00:49:16.103Z,97991.47
2022-09-01T00:52:24.224Z,98001.00
2022-09-01T00:55:30.761Z,97995.41
2022-09-01T00:58:37.067Z,98004.59
2022-09-01T01:01:40.698Z,98007.19
2022-09-01T01:04:44.137Z,98007.91
2022-09-01T01:07:48.408Z,98008.09
2022-09-01T01:10:51.512Z,98000.94
2022-09-01T01:13:57.525Z,98005.97
2022-09-01T01:17:02.086Z,97998.03
2022-09-01T01:20:26.194Z,98007.16
2022-09-01T01:23:39.152Z,98012.84
2022-09-01T01:26:43.528Z,98009.44
2022-09-01T01:29:47.765Z,98012.09
2022-09-01T01:32:51.956Z,98010.34
2022-09-01T01:35:57.683Z,98004.06
2022-09-01T01:39:06.595Z,98005.59
2022-09-01T01:42:12.367Z,97997.84
2022-09-01T01:45:17.396Z,98003.72
2022-09-01T01:48:24.008Z,97999.78
2022-09-01T01:51:28.505Z,98005.63
2022-09-01T01:54:32.759Z,98010.09
2022-09-01T01:57:37.412Z,98000.25
2022-09-01T02:00:42.950Z,98005.28
2022-09-01T02:03:45.881Z,98006.28
2022-09-01T02:06:50.073Z,97997.06
2022-09-01T02:09:53.357Z,98002.19
2022-09-01T02:13:03.602Z,98008.72
2022-09-01T02:16:13.203Z,98010.44
2022-09-01T02:19:21.291Z,98012.44
2022-09-01T02:22:24.206Z,98013.22
2022-09-01T02:25:27.581Z,98020.63
2022-09-01T02:28:35.028Z,98020.75
2022-09-01T02:31:40.026Z,98029.47
2022-09-01T02:34:42.863Z,98040.78
2022-09-01T02:37:49.467Z,98050.03
2022-09-01T02:40:53.684Z,98054.84
2022-09-01T02:44:00.316Z,98061.34
2022-09-01T02:47:08.007Z,98052.47
2022-09-01T02:50:13.889Z,98057.22
2022-09-01T02:53:16.724Z,98062.31
2022-09-01T02:56:25.652Z,98071.28
2022-09-01T02:59:32.242Z,98059.34
2022-09-01T03:02:36.875Z,98056.91
2022-09-01T03:05:41.062Z,98065.13
2022-09-01T03:08:45.026Z,98068.97
2022-09-01T03:11:50.685Z,98071.34
2022-09-01T03:14:54.876Z,98085.34
2022-09-01T03:17:59.611Z,98089.03
2022-09-01T03:21:03.519Z,98090.91
2022-09-01T03:24:06.581Z,98102.66
2022-09-01T03:27:11.773Z,98106.75
2022-09-01T03:30:16.460Z,98112.50
2022-09-01T03:33:22.694Z,98114.97
2022-09-01T03:36:27.789Z,98124.47
2022-09-01T03:39:31.352Z,98127.94
2022-09-01T03:42:34.237Z,98142.56
2022-09-01T03:45:39.076Z,98145.56
2022-09-01T03:48:43.495Z,98144.13
2022-09-01T03:51:46.503Z,98155.50
2022-09-01T03:54:54.325Z,98154.72
2022-09-01T03:58:00.379Z,98144.13
2022-09-01T04:01:04.997Z,98139.78
2022-09-01T04:04:13.854Z,98130.53
2022-09-01T04:07:18.961Z,98118.59
2022-09-01T04:10:22.532Z,98122.97
2022-09-01T04:13:28.151Z,98116.38
2022-09-01T04:16:52.911Z,98110.66
2022-09-01T04:19:56.029Z,98114.75
2022-09-01T04:22:59.890Z,98104.53
2022-09-01T04:26:09.127Z,98102.34
2022-09-01T04:29:12.965Z,98107.94
2022-09-01T04:32:17.397Z,98102.66
2022-09-01T04:35:32.693Z,98096.78
2022-09-01T04:38:41.188Z,98099.22
2022-09-01T04:41:46.998Z,98093.41
2022-09-01T04:44:50.015Z,98094.63
2022-09-01T04:47:54.188Z,98100.00
2022-09-01T04:50:58.438Z,98100.66
2022-09-01T04:54:03.734Z,98104.97
2022-09-01T04:57:07.547Z,98112.56
2022-09-01T05:00:22.623Z,98107.06
2022-09-01T05:03:27.494Z,98110.19
2022-09-01T05:06:33.974Z,98113.09
2022-09-01T05:09:38.650Z,98109.94
2022-09-01T05:13:01.947Z,98102.66
2022-09-01T05:16:13.049Z,98103.13
2022-09-01T05:19:21.008Z,98106.03
2022-09-01T05:22:25.726Z,98090.84
2022-09-01T05:25:32.606Z,98094.91
2022-09-01T05:28:35.985Z,98098.28
2022-09-01T05:31:39.141Z,98104.28
2022-09-01T05:34:43.910Z,98103.22
2022-09-01T05:37:47.031Z,98101.19
2022-09-01T05:40:58.154Z,98108.59
2022-09-01T05:44:03.044Z,98109.63
2022-09-01T05:47:12.169Z,98098.78
2022-09-01T05:50:27.399Z,98104.13
2022-09-01T05:53:36.312Z,98097.59
2022-09-01T05:56:43.702Z,98075.75
2022-09-01T05:59:54.109Z,98069.28
2022-09-01T06:03:01.809Z,98056.88
2022-09-01T06:06:08.837Z,98048.13
2022-09-01T06:09:12.122Z,98043.84
2022-09-01T06:12:20.452Z,98043.19
2022-09-01T06:15:24.822Z,98038.19
2022-09-01T06:18:29.763Z,98022.03
2022-09-01T06:21:35.877Z,98020.75
2022-09-01T06:24:41.020Z,98035.91
2022-09-01T06:27:48.761Z,98040.38
2022-09-01T06:30:53.287Z,98038.19
2022-09-01T06:33:58.037Z,98046.91
2022-09-01T06:37:02.185Z,98049.03
2022-09-01T06:40:08.062Z,98038.13
2022-09-01T06:43:14.091Z,98040.66
2022-09-01T06:46:20.143Z,98041.84
2022-09-01T06:49:32.593Z,98044.38
2022-09-01T06:56:02.940Z,98029.88
2022-09-01T06:59:08.152Z,98029.75
2022-09-01T07:02:17.773Z,98007.34
2022-09-01T07:06:00.869Z,97995.50
2022-09-01T07:09:38.841Z,97967.66
2022-09-01T07:13:10.122Z,97963.22
2022-09-01T07:16:35.434Z,97938.03
2022-09-01T07:19:54.839Z,97925.41
2022-09-01T07:23:05.575Z,97927.81
2022-09-01T07:30:53.980Z,97896.34
2022-09-01T07:44:21.362Z,97869.94
2022-09-01T07:47:55.093Z,97864.44
2022-09-01T07:54:25.283Z,97864.03
2022-09-01T07:57:28.203Z,97868.13
2022-09-01T08:00:31.942Z,97866.41
2022-09-01T08:03:42.182Z,97874.34
2022-09-01T08:06:45.090Z,97880.06
2022-09-01T08:09:48.177Z,97892.31
2022-09-01T08:12:59.771Z,97910.94
2022-09-01T08:16:08.695Z,97924.38
2022-09-01T08:19:16.895Z,97932.56
2022-09-01T08:22:39.942Z,97932.47
2022-09-01T08:25:52.379Z,97943.06
2022-09-01T08:28:56.173Z,97954.13
2022-09-01T08:32:18.568Z,97950.00
2022-09-01T08:35:22.918Z,97955.44
2022-09-01T08:38:25.915Z,97950.81
2022-09-01T08:41:41.310Z,97960.28
2022-09-01T08:44:59.751Z,97950.50
2022-09-01T08:51:41.169Z,97962.94
2022-09-01T08:54:48.036Z,97965.47
2022-09-01T08:57:57.169Z,97947.22
2022-09-01T09:01:09.115Z,97948.69
2022-09-01T09:04:27.461Z,97960.41
2022-09-01T09:07:50.234Z,97967.63
2022-09-01T09:10:59.666Z,97956.09
2022-09-01T09:14:12.399Z,97963.78
2022-09-01T09:17:19.892Z,97961.25
2022-09-01T09:20:22.936Z,97958.38
2022-09-01T09:23:33.359Z,97956.94
2022-09-01T09:26:43.495Z,97962.38
2022-09-01T09:29:47.439Z,97965.31
2022-09-01T09:36:25.444Z,97961.31
2022-09-01T09:39:30.406Z,97959.31
2022-09-01T09:42:36.639Z,97963.09
2022-09-01T09:45:42.549Z,97948.50
2022-09-01T09:48:45.385Z,97947.66
2022-09-01T09:51:50.492Z,97951.50
2022-09-01T09:55:04.818Z,97945.41
2022-09-01T09:58:12.878Z,97939.59
2022-09-01T10:01:30.721Z,97945.38
2022-09-01T10:04:38.544Z,97947.28
2022-09-01T10:07:41.413Z,97953.69
2022-09-01T10:10:57.912Z,97945.56
2022-09-01T10:14:02.279Z,97940.44
2022-09-01T10:17:10.890Z,97936.72
2022-09-01T10:20:18.229Z,97939.56
2022-09-01T10:23:22.077Z,97943.72
2022-09-01T10:26:32.807Z,97939.34
2022-09-01T10:29:48.992Z,97939.44
2022-09-01T10:32:57.041Z,97927.72
2022-09-01T10:36:01.385Z,97926.00
2022-09-01T10:39:08.908Z,97923.63
2022-09-01T10:42:19.713Z,97922.16
2022-09-01T10:45:34.091Z,97926.47
2022-09-01T10:48:48.565Z,97928.84
2022-09-01T10:51:56.604Z,97919.66
2022-09-01T10:55:02.855Z,97923.91
2022-09-01T11:02:28.375Z,97924.13
2022-09-01T11:06:17.496Z,97919.69
2022-09-01T11:09:24.117Z,97917.97
2022-09-01T11:12:51.158Z,97918.75
2022-09-01T11:16:00.405Z,97919.16
2022-09-01T11:19:33.484Z,97926.56
2022-09-01T11:22:39.394Z,97927.31
2022-09-01T11:25:45.176Z,97923.91
2022-09-01T11:28:48.291Z,97929.34
2022-09-01T11:31:53.488Z,97927.47
2022-09-01T11:34:58.748Z,97930.72
2022-09-01T11:38:05.835Z,97924.19
2022-09-01T11:41:09.387Z,97925.25
2022-09-01T11:44:15.660Z,97935.53
2022-09-01T11:47:23.410Z,97926.09
2022-09-01T11:50:29.897Z,97930.66
2022-09-01T11:53:33.072Z,97930.91
2022-09-01T11:56:36.219Z,97931.50
2022-09-01T11:59:39.660Z,97930.59
2022-09-01T12:02:49.198Z,97924.16
2022-09-01T12:05:59.468Z,97929.59
2022-09-01T12:09:05.074Z,97926.56
2022-09-01T12:12:29.473Z,97931.13
2022-09-01T12:15:35.171Z,97927.19
2022-09-01T12:18:47.467Z,97920.09
2022-09-01T12:22:00.483Z,97920.81
2022-09-01T12:25:04.694Z,97918.19
2022-09-01T12:28:07.865Z,97916.75
2022-09-01T12:31:16.528Z,97913.28
2022-09-01T12:34:29.914Z,97906.44
2022-09-01T12:37:32.810Z,97901.53
2022-09-01T12:40:37.025Z,97907.00
2022-09-01T12:43:42.619Z,97907.31
2022-09-01T12:46:46.941Z,97902.84
2022-09-01T12:49:52.326Z,97909.97
2022-09-01T12:52:58.345Z,97898.16
2022-09-01T12:56:07.588Z,97895.75
2022-09-01T12:59:15.548Z,97888.56
2022-09-01T13:02:36.800Z,97884.25
2022-09-01T13:05:43.306Z,97888.38
2022-09-01T13:08:46.303Z,97886.03
2022-09-01T13:12:06.550Z,97876.72
2022-09-01T13:15:11.086Z,97873.22
2022-09-01T13:18:13.975Z,97876.16
2022-09-01T13:21:18.327Z,97872.53
2022-09-01T13:24:24.442Z,97873.56
2022-09-01T13:27:29.573Z,97869.59
2022-09-01T13:30:32.360Z,97874.00
2022-09-01T13:37:01.120Z,97875.00
2022-09-01T13:40:05.815Z,97868.97
2022-09-01T13:43:08.718Z,97875.44
2022-09-01T13:46:12.432Z,97871.63
2022-09-01T13:52:40.405Z,97867.78
2022-09-01T13:55:44.388Z,97875.53
2022-09-01T13:58:48.439Z,97877.28
2022-09-01T14:01:51.668Z,97879.09
2022-09-01T14:04:54.569Z,97877.53
2022-09-01T14:07:59.575Z,97873.81
2022-09-01T14:11:02.996Z,97870.78
2022-09-01T14:14:06.393Z,97868.06
2022-09-01T14:17:09.412Z,97873.25
2022-09-01T14:20:14.912Z,97870.38
2022-09-01T14:23:20.173Z,97878.59
2022-09-01T14:26:24.069Z,97877.06
2022-09-01T14:29:31.015Z,97866.66
2022-09-01T14:32:35.696Z,97863.66
2022-09-01T14:35:41.294Z,97865.53
2022-09-01T14:38:45.490Z,97870.75
2022-09-01T14:41:48.344Z,97862.84
2022-09-01T14:44:51.135Z,97864.22
2022-09-01T14:47:57.054Z,97867.03
2022-09-01T14:51:01.107Z,97866.56
2022-09-01T14:54:06.084Z,97863.66
2022-09-01T15:00:35.940Z,97858.63
2022-09-01T15:03:39.400Z,97855.28
2022-09-01T15:06:42.317Z,97854.22
2022-09-01T15:09:46.580Z,97848.66
2022-09-01T15:12:50.688Z,97852.13
2022-09-01T15:15:53.928Z,97850.03
2022-09-01T15:18:56.992Z,97843.31
2022-09-01T15:21:59.798Z,97843.31
2022-09-01T15:25:04.069Z,97837.34
2022-09-01T15:28:06.965Z,97833.97
2022-09-01T15:31:10.716Z,97840.84
2022-09-01T15:34:17.701Z,97840.16
2022-09-01T15:37:20.468Z,97841.19
2022-09-01T15:40:26.606Z,97833.75
2022-09-01T15:43:30.306Z,97828.03
2022-09-01T15:46:33.775Z,97834.06
2022-09-01T15:49:41.839Z,97824.38
2022-09-01T15:52:50.939Z,97824.38
2022-09-01T15:55:55.654Z,97827.59
2022-09-01T15:59:01.567Z,97824.44
2022-09-01T16:02:06.491Z,97825.44
2022-09-01T16:05:10.912Z,97820.19
2022-09-01T16:08:14.113Z,97821.13
2022-09-01T16:11:18.655Z,97821.34
2022-09-01T16:14:23.625Z,97817.94
2022-09-01T16:17:39.878Z,97820.44
2022-09-01T16:20:52.174Z,97814.94
2022-09-01T16:23:55.649Z,97814.09
2022-09-01T16:27:03.329Z,97818.19
2022-09-01T16:30:10.047Z,97818.28
2022-09-01T16:33:20.063Z,97816.28
2022-09-01T16:36:35.448Z,97820.00
2022-09-01T16:39:45.947Z,97817.19
2022-09-01T16:42:58.192Z,97825.28
2022-09-01T16:46:09.554Z,97819.38
2022-09-01T16:49:23.608Z,97827.13
2022-09-01T16:52:30.469Z,97817.84
2022-09-01T16:55:41.509Z,97823.28
2022-09-01T16:58:55.251Z,97826.38
2022-09-01T17:02:10.990Z,97821.84
2022-09-01T17:05:25.424Z,97821.19
2022-09-01T17:08:33.015Z,97831.25
2022-09-01T17:11:48.952Z,97822.72
2022-09-01T17:14:58.255Z,97825.34
2022-09-01T17:18:21.744Z,97821.06
2022-09-01T17:21:33.357Z,97817.81
2022-09-01T17:24:39.692Z,97825.63
2022-09-01T17:27:51.056Z,97828.19
2022-09-01T17:31:02.055Z,97824.47
2022-09-01T17:34:18.815Z,97833.09
2022-09-01T17:37:33.189Z,97831.50
2022-09-01T17:40:53.040Z,97843.06
2022-09-01T17:44:06.606Z,97842.69
2022-09-01T17:47:20.859Z,97845.19
2022-09-01T17:50:34.238Z,97847.13
2022-09-01T17:53:49.848Z,97840.16
2022-09-01T17:57:01.372Z,97836.72
2022-09-01T18:00:24.182Z,97833.84
2022-09-01T18:03:47.849Z,97841.25
2022-09-01T18:06:57.363Z,97836.38
2022-09-01T18:10:05.956Z,97840.25
2022-09-01T18:13:25.896Z,97840.44
2022-09-01T18:16:52.987Z,97847.81
2022-09-01T18:20:08.917Z,97846.81
2022-09-01T18:23:16.821Z,97847.25
2022-09-01T18:26:27.278Z,97850.53
2022-09-01T18:29:36.206Z,97846.63
2022-09-01T18:32:43.557Z,97851.56
2022-09-01T18:36:00.580Z,97849.53
2022-09-01T18:39:08.719Z,97853.59
2022-09-01T18:42:22.270Z,97854.22
2022-09-01T18:45:35.651Z,97862.19
2022-09-01T18:48:55.956Z,97866.28
2022-09-01T18:52:11.303Z,97869.13
2022-09-01T18:55:22.137Z,97872.81
2022-09-01T18:58:38.848Z,97873.63
2022-09-01T19:01:52.948Z,97865.47
2022-09-01T19:05:07.240Z,97874.84
2022-09-01T19:08:23.074Z,97877.91
2022-09-01T19:11:45.994Z,97866.91
2022-09-01T19:15:06.373Z,97866.69
2022-09-01T19:18:15.873Z,97871.16
2022-09-01T19:21:23.906Z,97875.03
2022-09-01T19:24:37.173Z,97877.84
2022-09-01T19:27:40.170Z,97870.28
2022-09-01T19:30:48.737Z,97868.78
2022-09-01T19:33:58.251Z,97867.63
2022-09-01T19:37:03.252Z,97870.84
2022-09-01T19:40:10.707Z,97858.47
2022-09-01T19:43:18.406Z,97862.69
2022-09-01T19:46:34.630Z,97862.16
2022-09-01T19:49:48.432Z,97852.22
2022-09-01T19:53:00.682Z,97858.16
2022-09-01T19:56:13.563Z,97858.41
2022-09-01T19:59:23.284Z,97854.47
2022-09-01T20:02:31.316Z,97857.38
2022-09-01T20:05:41.324Z,97856.38
2022-09-01T20:08:54.978Z,97860.81
2022-09-01T20:12:13.812Z,97850.94
2022-09-01T20:15:27.246Z,97857.72
2022-09-01T20:18:33.731Z,97853.69
2022-09-01T20:21:40.154Z,97855.75
2022-09-01T20:25:11.224Z,97845.06
2022-09-01T20:28:26.668Z,97842.66
2022-09-01T20:31:34.178Z,97847.41
2022-09-01T20:34:44.887Z,97841.63
2022-09-01T20:37:54.053Z,97843.09
2022-09-01T20:41:01.981Z,97840.84
2022-09-01T20:44:28.877Z,97841.84
2022-09-01T20:47:33.060Z,97846.63
2022-09-01T20:50:43.087Z,97849.94
2022-09-01T20:54:15.226Z,97845.88
2022-09-01T20:57:30.303Z,97848.69
2022-09-01T21:00:42.480Z,97842.63
2022-09-01T21:03:57.961Z,97852.81
2022-09-01T21:07:05.714Z,97840.34
2022-09-01T21:10:21.243Z,97845.91
2022-09-01T21:13:39.409Z,97839.00
2022-09-01T21:16:50.405Z,97836.03
2022-09-01T21:20:03.954Z,97832.94
2022-09-01T21:23:06.941Z,97831.75
2022-09-01T21:26:10.443Z,97833.94
2022-09-01T21:29:26.597Z,97837.97
2022-09-01T21:32:33.708Z,97831.56
2022-09-01T21:35:36.524Z,97825.84
2022-09-01T21:38:39.491Z,97830.75
2022-09-01T21:41:42.522Z,97824.63
2022-09-01T21:44:45.713Z,97821.19
2022-09-01T21:47:51.074Z,97819.34
2022-09-01T21:50:54.139Z,97815.72
2022-09-01T21:53:56.889Z,97818.69
2022-09-01T21:56:59.655Z,97824.41
2022-09-01T22:00:02.923Z,97822.44
2022-09-01T22:03:07.739Z,97820.13
2022-09-01T22:06:12.791Z,97805.59
2022-09-01T22:09:20.553Z,97812.19
2022-09-01T22:12:24.347Z,97807.84
2022-09-01T22:15:27.523Z,97821.03
2022-09-01T22:18:31.692Z,97813.22
2022-09-01T22:21:36.352Z,97812.94
2022-09-01T22:24:39.113Z,97819.81
2022-09-01T22:27:42.198Z,97816.75
2022-09-01T22:30:46.327Z,97817.63
2022-09-01T22:33:50.709Z,97826.91
2022-09-01T22:36:53.490Z,97817.75
2022-09-01T22:39:56.347Z,97821.41
2022-09-01T22:42:59.101Z,97820.41
2022-09-01T22:46:01.986Z,97821.88
2022-09-01T22:49:06.704Z,97827.22
2022-09-01T22:52:09.528Z,97825.53
2022-09-01T22:55:13.690Z,97840.34
2022-09-01T22:58:17.486Z,97837.25
2022-09-01T23:01:22.596Z,97836.75
2022-09-01T23:04:26.807Z,97841.59
2022-09-01T23:07:29.609Z,97838.41
2022-09-01T23:10:32.725Z,97836.59
2022-09-01T23:13:36.716Z,97840.94
2022-09-01T23:16:39.647Z,97841.13
2022-09-01T23:19:43.836Z,97842.59
2022-09-01T23:22:47.014Z,97839.88
2022-09-01T23:25:53.467Z,97842.25
2022-09-01T23:28:57.635Z,97835.97
2022-09-01T23:32:00.609Z,97839.88
2022-09-01T23:35:06.085Z,97840.53
2022-09-01T23:38:10.697Z,97834.81
2022-09-01T23:41:17.868Z,97842.94
2022-09-01T23:44:21.804Z,97834.91
2022-09-01T23:47:24.559Z,97831.50
2022-09-01T23:50:28.763Z,97830.50
2022-09-01T23:53:32.829Z,97835.78
2022-09-01T23:56:35.622Z,97835.03
2022-09-01T23:59:38.532Z,97831.47
